createdAt,value
2022-10-28T00:00:09.801Z,58.91
2022-10-28T00:01:20.158Z,58.64
2022-10-28T00:02:21.792Z,58.86
2022-10-28T00:03:23.453Z,58.63
2022-10-28T00:04:25.006Z,58.58
2022-10-28T00:05:26.559Z,58.33
2022-10-28T00:06:31.378Z,57.72
2022-10-28T00:07:32.907Z,58.00
2022-10-28T00:08:34.609Z,57.92
2022-10-28T00:09:36.202Z,57.73
2022-10-28T00:10:37.757Z,57.99
2022-10-28T00:11:39.587Z,58.06
2022-10-28T00:12:41.096Z,58.34
2022-10-28T00:13:44.116Z,58.24
2022-10-28T00:14:45.708Z,57.87
2022-10-28T00:15:47.252Z,58.07
2022-10-28T00:16:49.307Z,58.24
2022-10-28T00:17:51.152Z,57.95
2022-10-28T00:18:54.164Z,57.93
2022-10-28T00:19:55.908Z,57.56
2022-10-28T00:21:07.116Z,57.55
2022-10-28T00:22:08.685Z,57.48
2022-10-28T00:23:10.249Z,57.58
2022-10-28T00:24:13.809Z,57.71
2022-10-28T00:25:15.406Z,57.43
2022-10-28T00:26:22.149Z,57.45
2022-10-28T00:27:23.660Z,57.45
2022-10-28T00:28:25.177Z,57.56
2022-10-28T00:29:26.784Z,57.58
2022-10-28T00:30:28.315Z,57.62
2022-10-28T00:31:31.313Z,57.75
2022-10-28T00:32:32.815Z,57.51
2022-10-28T00:33:34.613Z,56.92
2022-10-28T00:34:36.174Z,57.35
2022-10-28T00:35:37.714Z,57.21
2022-10-28T00:36:41.441Z,57.20
2022-10-28T00:37:42.970Z,57.03
2022-10-28T00:38:47.333Z,57.01
2022-10-28T00:39:48.894Z,56.91
2022-10-28T00:40:50.393Z,57.24
2022-10-28T00:41:58.190Z,57.40
2022-10-28T00:42:59.699Z,57.75
2022-10-28T00:44:22.499Z,57.88
2022-10-28T00:45:24.886Z,57.93
2022-10-28T00:46:43.787Z,57.96
2022-10-28T00:47:56.046Z,58.23
2022-10-28T00:49:18.835Z,58.28
2022-10-28T00:50:38.742Z,57.99
2022-10-28T00:51:41.003Z,58.08
2022-10-28T00:52:46.640Z,58.43
2022-10-28T00:53:51.752Z,58.86
2022-10-28T00:54:54.719Z,58.93
2022-10-28T00:55:59.653Z,59.00
2022-10-28T00:57:04.129Z,59.05
2022-10-28T00:58:07.489Z,59.16
2022-10-28T00:59:22.265Z,59.62
2022-10-28T01:00:25.851Z,59.15
2022-10-28T01:01:27.539Z,59.52
2022-10-28T01:02:29.303Z,60.04
2022-10-28T01:03:31.061Z,59.95
2022-10-28T01:04:33.089Z,60.52
2022-10-28T01:05:38.803Z,59.83
2022-10-28T01:06:41.762Z,60.05
2022-10-28T01:07:44.437Z,59.49
2022-10-28T01:08:46.043Z,59.68
2022-10-28T01:09:47.827Z,59.88
2022-10-28T01:11:05.968Z,59.73
2022-10-28T01:12:17.123Z,59.15
2022-10-28T01:13:41.917Z,58.70
2022-10-28T01:14:46.176Z,58.64
2022-10-28T01:15:56.855Z,58.51
2022-10-28T01:17:24.496Z,58.04
2022-10-28T01:19:00.075Z,57.96
2022-10-28T01:20:41.573Z,58.25
2022-10-28T01:22:22.373Z,58.58
2022-10-28T01:23:39.926Z,58.76
2022-10-28T01:24:50.612Z,58.21
2022-10-28T01:26:12.303Z,58.25
2022-10-28T01:27:25.848Z,58.13
2022-10-28T01:29:04.511Z,58.95
2022-10-28T01:30:13.897Z,58.88
2022-10-28T01:31:33.380Z,58.75
2022-10-28T01:32:46.840Z,58.87
2022-10-28T01:33:58.705Z,58.76
2022-10-28T01:35:35.565Z,59.56
2022-10-28T01:36:49.463Z,59.55
2022-10-28T01:38:16.131Z,59.92
2022-10-28T01:39:26.498Z,60.11
2022-10-28T01:40:34.275Z,59.28
2022-10-28T01:41:54.151Z,59.77
2022-10-28T01:43:01.781Z,59.55
2022-10-28T01:44:03.274Z,59.61
2022-10-28T01:45:07.873Z,59.72
2022-10-28T01:46:18.943Z,60.11
2022-10-28T01:47:26.271Z,59.30
2022-10-28T01:48:46.215Z,59.43
2022-10-28T01:49:56.699Z,59.20
2022-10-28T01:51:19.868Z,59.23
2022-10-28T01:52:25.814Z,58.82
2022-10-28T01:53:31.641Z,58.72
2022-10-28T01:54:34.620Z,58.94
2022-10-28T01:55:41.046Z,59.34
2022-10-28T01:56:45.117Z,59.45
2022-10-28T01:57:49.712Z,59.39
2022-10-28T01:58:55.988Z,58.98
2022-10-28T01:59:58.023Z,59.21
2022-10-28T02:01:04.804Z,59.07
2022-10-28T02:02:06.608Z,59.04
2022-10-28T02:03:09.703Z,59.30
2022-10-28T02:04:11.233Z,59.10
2022-10-28T02:05:40.368Z,58.98
2022-10-28T02:06:46.139Z,59.13
2022-10-28T02:07:51.051Z,58.97
2022-10-28T02:08:55.129Z,59.15
2022-10-28T02:10:11.732Z,58.75
2022-10-28T02:11:22.057Z,59.19
2022-10-28T02:12:36.539Z,59.34
2022-10-28T02:13:43.903Z,59.24
2022-10-28T02:15:03.960Z,58.66
2022-10-28T02:16:18.698Z,58.51
2022-10-28T02:17:53.343Z,58.60
2022-10-28T02:19:25.619Z,58.53
2022-10-28T02:21:03.033Z,59.09
2022-10-28T02:22:19.588Z,59.26
2022-10-28T02:23:48.496Z,58.80
2022-10-28T02:24:49.991Z,59.19
2022-10-28T02:26:09.444Z,59.30
2022-10-28T02:27:29.111Z,58.84
2022-10-28T02:29:01.267Z,58.67
2022-10-28T02:30:09.774Z,58.93
2022-10-28T02:31:26.373Z,59.39
2022-10-28T02:32:32.261Z,59.44
2022-10-28T02:33:38.573Z,59.53
2022-10-28T02:34:45.441Z,59.89
2022-10-28T02:35:54.779Z,59.50
2022-10-28T02:36:59.485Z,59.42
2022-10-28T02:38:07.647Z,60.02
2022-10-28T02:39:10.137Z,59.65
2022-10-28T02:40:19.158Z,59.00
2022-10-28T02:41:31.292Z,59.47
2022-10-28T02:42:41.165Z,59.35
2022-10-28T02:43:44.640Z,59.60
2022-10-28T02:44:51.705Z,59.79
2022-10-28T02:45:57.538Z,60.03
2022-10-28T02:47:03.012Z,60.08
2022-10-28T02:48:12.812Z,59.97
2022-10-28T02:49:15.183Z,60.12
2022-10-28T02:50:20.164Z,60.32
2022-10-28T02:51:29.554Z,60.25
2022-10-28T02:52:34.232Z,60.20
2022-10-28T02:54:04.994Z,59.98
2022-10-28T02:55:07.051Z,59.98
2022-10-28T02:56:09.925Z,60.24
2022-10-28T02:57:22.168Z,60.45
2022-10-28T02:58:23.766Z,60.28
2022-10-28T02:59:25.814Z,60.38
2022-10-28T03:00:27.330Z,61.46
2022-10-28T03:01:29.108Z,61.56
2022-10-28T03:02:30.903Z,61.49
2022-10-28T03:03:32.495Z,61.52
2022-10-28T03:04:34.025Z,61.13
2022-10-28T03:05:35.546Z,61.51
2022-10-28T03:06:37.088Z,61.79
2022-10-28T03:07:38.838Z,61.71
2022-10-28T03:08:40.352Z,62.02
2022-10-28T03:09:41.965Z,61.97
2022-10-28T03:10:43.472Z,61.77
2022-10-28T03:11:44.982Z,61.49
2022-10-28T03:12:46.515Z,61.51
2022-10-28T03:13:48.131Z,61.73
2022-10-28T03:14:49.662Z,62.05
2022-10-28T03:15:51.210Z,61.93
2022-10-28T03:16:52.748Z,61.76
2022-10-28T03:17:54.469Z,61.94
2022-10-28T03:18:56.280Z,61.88
2022-10-28T03:19:57.848Z,62.49
2022-10-28T03:20:59.367Z,62.63
2022-10-28T03:22:00.908Z,61.88
2022-10-28T03:23:02.512Z,61.54
2022-10-28T03:24:04.305Z,61.98
2022-10-28T03:25:06.084Z,61.98
2022-10-28T03:26:07.606Z,61.71
2022-10-28T03:27:09.157Z,61.96
2022-10-28T03:28:10.664Z,61.69
2022-10-28T03:29:12.187Z,61.57
2022-10-28T03:30:14.688Z,61.67
2022-10-28T03:31:17.123Z,61.64
2022-10-28T03:32:18.759Z,61.61
2022-10-28T03:33:20.345Z,61.59
2022-10-28T03:34:21.884Z,60.95
2022-10-28T03:35:23.557Z,60.98
2022-10-28T03:36:25.109Z,61.42
2022-10-28T03:37:26.710Z,61.24
2022-10-28T03:38:28.223Z,61.10
2022-10-28T03:39:29.750Z,60.93
2022-10-28T03:40:31.340Z,60.53
2022-10-28T03:41:32.866Z,60.50
2022-10-28T03:42:36.450Z,60.14
2022-10-28T03:43:40.473Z,60.96
2022-10-28T03:44:41.979Z,60.93
2022-10-28T03:45:44.249Z,60.65
2022-10-28T03:46:45.768Z,60.30
2022-10-28T03:47:47.457Z,60.63
2022-10-28T03:48:48.997Z,61.09
2022-10-28T03:49:50.535Z,61.17
2022-10-28T03:50:55.728Z,61.57
2022-10-28T03:51:57.258Z,61.05
2022-10-28T03:52:58.902Z,61.41
2022-10-28T03:54:00.580Z,61.55
2022-10-28T03:55:02.153Z,61.13
2022-10-28T03:56:03.870Z,61.85
2022-10-28T03:57:05.389Z,62.50
2022-10-28T03:58:06.956Z,61.83
2022-10-28T03:59:13.232Z,62.06
2022-10-28T04:00:16.912Z,62.09
2022-10-28T04:01:18.551Z,61.66
2022-10-28T04:02:20.253Z,62.70
2022-10-28T04:03:23.757Z,62.20
2022-10-28T04:04:28.420Z,62.65
2022-10-28T04:05:32.348Z,62.56
2022-10-28T04:06:33.859Z,63.26
2022-10-28T04:07:35.590Z,62.21
2022-10-28T04:08:37.440Z,62.17
2022-10-28T04:09:38.988Z,62.16
2022-10-28T04:10:44.916Z,62.08
2022-10-28T04:11:49.401Z,62.54
2022-10-28T04:12:51.052Z,62.55
2022-10-28T04:13:52.846Z,61.98
2022-10-28T04:14:54.439Z,62.54
2022-10-28T04:15:56.622Z,64.00
2022-10-28T04:16:58.780Z,63.76
2022-10-28T04:18:00.387Z,64.22
2022-10-28T04:19:02.536Z,63.40
2022-10-28T04:20:04.736Z,63.86
2022-10-28T04:21:06.351Z,63.14
2022-10-28T04:22:09.152Z,63.09
2022-10-28T04:23:15.748Z,63.66
2022-10-28T04:24:17.291Z,63.53
2022-10-28T04:25:18.841Z,63.97
2022-10-28T04:26:20.369Z,64.16
2022-10-28T04:27:21.907Z,63.44
2022-10-28T04:28:24.493Z,62.77
2022-10-28T04:29:26.001Z,62.25
2022-10-28T04:30:27.596Z,62.13
2022-10-28T04:31:29.110Z,62.70
2022-10-28T04:32:30.780Z,62.60
2022-10-28T04:33:32.484Z,62.30
2022-10-28T04:34:34.009Z,62.24
2022-10-28T04:35:35.592Z,62.09
2022-10-28T04:36:37.103Z,62.37
2022-10-28T04:37:39.805Z,62.03
2022-10-28T04:38:41.328Z,63.78
2022-10-28T04:39:42.827Z,63.24
2022-10-28T04:40:47.929Z,63.53
2022-10-28T04:41:49.439Z,62.32
2022-10-28T04:42:51.257Z,63.08
2022-10-28T04:43:53.380Z,62.17
2022-10-28T04:44:55.095Z,61.96
2022-10-28T04:45:56.637Z,62.13
2022-10-28T04:46:58.229Z,62.09
2022-10-28T04:48:00.957Z,62.30
2022-10-28T04:49:02.784Z,62.24
2022-10-28T04:50:04.956Z,62.73
2022-10-28T04:51:06.606Z,63.01
2022-10-28T04:52:09.738Z,63.38
2022-10-28T04:53:13.722Z,63.61
2022-10-28T04:54:15.245Z,63.91
2022-10-28T04:55:16.770Z,63.87
2022-10-28T04:56:18.340Z,63.85
2022-10-28T04:57:19.876Z,64.28
2022-10-28T04:58:21.404Z,64.13
2022-10-28T04:59:22.955Z,63.56
2022-10-28T05:00:25.501Z,63.69
2022-10-28T05:01:27.192Z,63.67
2022-10-28T05:02:28.871Z,63.48
2022-10-28T05:03:30.393Z,62.91
2022-10-28T05:04:31.922Z,63.18
2022-10-28T05:05:33.740Z,63.25
2022-10-28T05:06:35.368Z,63.53
2022-10-28T05:07:37.945Z,63.10
2022-10-28T05:08:39.544Z,62.66
2022-10-28T05:09:41.070Z,63.86
2022-10-28T05:10:42.577Z,63.16
2022-10-28T05:11:44.133Z,63.21
2022-10-28T05:12:46.085Z,63.06
2022-10-28T05:13:47.748Z,63.29
2022-10-28T05:14:51.223Z,63.14
2022-10-28T05:15:54.682Z,63.75
2022-10-28T05:16:56.259Z,64.30
2022-10-28T05:17:57.841Z,65.23
2022-10-28T05:18:59.376Z,65.20
2022-10-28T05:20:00.972Z,65.21
2022-10-28T05:21:02.541Z,65.34
2022-10-28T05:22:04.386Z,65.41
2022-10-28T05:23:05.920Z,66.15
2022-10-28T05:24:07.596Z,65.95
2022-10-28T05:25:09.316Z,73.78
2022-10-28T05:26:10.875Z,73.22
2022-10-28T05:27:12.857Z,70.68
2022-10-28T05:28:14.554Z,68.51
2022-10-28T05:29:16.169Z,68.22
2022-10-28T05:30:18.077Z,67.97
2022-10-28T05:31:19.658Z,67.87
2022-10-28T05:32:21.205Z,67.03
2022-10-28T05:33:22.776Z,67.45
2022-10-28T05:34:24.273Z,67.96
2022-10-28T05:35:25.808Z,67.23
2022-10-28T05:36:27.387Z,67.20
2022-10-28T05:37:28.978Z,67.65
2022-10-28T05:38:30.515Z,66.68
2022-10-28T05:39:32.049Z,68.26
2022-10-28T05:40:33.716Z,67.39
2022-10-28T05:41:38.662Z,67.63
2022-10-28T05:42:44.472Z,66.96
2022-10-28T05:43:45.974Z,66.94
2022-10-28T05:44:47.513Z,67.44
2022-10-28T05:45:53.994Z,67.73
2022-10-28T05:46:56.540Z,66.53
2022-10-28T05:47:58.099Z,67.02
2022-10-28T05:48:59.615Z,66.35
2022-10-28T05:50:01.129Z,65.73
2022-10-28T05:51:02.712Z,66.70
2022-10-28T05:52:04.505Z,66.98
2022-10-28T05:53:06.045Z,66.45
2022-10-28T05:54:07.664Z,65.68
2022-10-28T05:55:09.481Z,66.11
2022-10-28T05:56:11.085Z,66.45
2022-10-28T05:57:12.726Z,65.84
2022-10-28T05:58:14.358Z,66.58
2022-10-28T05:59:15.881Z,66.82
2022-10-28T06:00:19.793Z,66.63
2022-10-28T06:01:21.335Z,66.02
2022-10-28T06:02:22.907Z,66.98
2022-10-28T06:03:30.000Z,67.32
2022-10-28T06:04:33.494Z,67.17
2022-10-28T06:05:43.108Z,67.29
2022-10-28T06:06:44.669Z,67.02
2022-10-28T06:07:46.229Z,66.76
2022-10-28T06:08:47.773Z,66.52
2022-10-28T06:09:50.723Z,66.26
2022-10-28T06:10:52.546Z,65.83
2022-10-28T06:11:54.054Z,65.61
2022-10-28T06:12:55.797Z,65.97
2022-10-28T06:13:57.338Z,65.51
2022-10-28T06:14:58.980Z,65.06
2022-10-28T06:16:00.551Z,65.41
2022-10-28T06:17:02.590Z,65.73
2022-10-28T06:18:04.395Z,64.74
2022-10-28T06:19:05.925Z,64.24
2022-10-28T06:20:08.078Z,64.51
2022-10-28T06:21:09.610Z,64.62
2022-10-28T06:22:11.456Z,63.94
2022-10-28T06:23:12.972Z,63.40
2022-10-28T06:24:14.583Z,63.57
2022-10-28T06:25:17.316Z,63.04
2022-10-28T06:26:19.059Z,63.60
2022-10-28T06:27:20.612Z,63.66
2022-10-28T06:28:22.544Z,63.35
2022-10-28T06:29:24.384Z,62.76
2022-10-28T06:30:26.368Z,63.36
2022-10-28T06:31:27.881Z,62.65
2022-10-28T06:32:29.397Z,62.60
2022-10-28T06:33:33.956Z,61.68
2022-10-28T06:34:35.561Z,61.65
2022-10-28T06:35:37.133Z,61.51
2022-10-28T06:36:38.752Z,60.31
2022-10-28T06:37:40.397Z,61.58
2022-10-28T06:38:41.903Z,60.91
2022-10-28T06:39:44.311Z,61.92
2022-10-28T06:40:49.041Z,62.26
2022-10-28T06:41:53.826Z,62.11
2022-10-28T06:42:59.745Z,63.01
2022-10-28T06:44:01.692Z,63.17
2022-10-28T06:45:03.917Z,62.52
2022-10-28T06:46:05.495Z,62.12
2022-10-28T06:47:08.843Z,61.52
2022-10-28T06:48:10.491Z,61.03
2022-10-28T06:49:12.012Z,60.08
2022-10-28T06:50:13.602Z,60.46
2022-10-28T06:51:17.157Z,60.38
2022-10-28T06:52:18.673Z,60.09
2022-10-28T06:53:20.229Z,59.39
2022-10-28T06:54:21.744Z,59.22
2022-10-28T06:55:24.106Z,59.36
2022-10-28T06:56:25.841Z,58.56
2022-10-28T06:57:29.223Z,58.70
2022-10-28T06:58:30.995Z,58.86
2022-10-28T06:59:32.540Z,58.89
2022-10-28T07:00:34.783Z,58.80
2022-10-28T07:01:36.417Z,60.12
2022-10-28T07:02:41.459Z,60.42
2022-10-28T07:03:47.019Z,61.78
2022-10-28T07:04:48.562Z,61.78
2022-10-28T07:05:51.550Z,61.27
2022-10-28T07:06:57.157Z,61.27
2022-10-28T07:07:58.718Z,59.90
2022-10-28T07:09:00.239Z,60.45
2022-10-28T07:10:01.762Z,59.78
2022-10-28T07:11:03.425Z,59.24
2022-10-28T07:12:06.983Z,59.34
2022-10-28T07:13:08.693Z,58.33
2022-10-28T07:14:10.844Z,57.82
2022-10-28T07:15:12.367Z,58.37
2022-10-28T07:16:13.907Z,58.08
2022-10-28T07:17:15.399Z,57.45
2022-10-28T07:18:16.930Z,56.96
2022-10-28T07:19:22.474Z,56.91
2022-10-28T07:20:27.866Z,56.65
2022-10-28T07:21:29.863Z,56.30
2022-10-28T07:22:31.425Z,57.17
2022-10-28T07:23:34.223Z,57.57
2022-10-28T07:24:35.747Z,57.25
2022-10-28T07:25:37.435Z,56.48
2022-10-28T07:26:38.982Z,56.21
2022-10-28T07:27:40.499Z,55.89
2022-10-28T07:28:42.932Z,55.70
2022-10-28T07:29:44.513Z,55.71
2022-10-28T07:30:46.063Z,55.56
2022-10-28T07:31:47.619Z,55.92
2022-10-28T07:32:49.245Z,55.14
2022-10-28T07:33:54.840Z,55.18
2022-10-28T07:34:56.339Z,54.90
2022-10-28T07:35:57.885Z,54.37
2022-10-28T07:36:59.515Z,55.52
2022-10-28T07:38:01.018Z,54.72
2022-10-28T07:39:02.605Z,55.15
2022-10-28T07:40:04.555Z,54.85
2022-10-28T07:41:08.874Z,54.73
2022-10-28T07:42:10.459Z,55.54
2022-10-28T07:43:12.055Z,56.18
2022-10-28T07:44:14.673Z,55.10
2022-10-28T07:45:17.629Z,56.49
2022-10-28T07:46:19.928Z,56.95
2022-10-28T07:47:22.174Z,55.65
2022-10-28T07:48:24.463Z,56.58
2022-10-28T07:49:26.055Z,56.57
2022-10-28T07:50:27.654Z,56.65
2022-10-28T07:51:29.182Z,57.56
2022-10-28T07:52:30.773Z,56.93
2022-10-28T07:53:32.527Z,55.79
2022-10-28T07:54:34.033Z,55.90
2022-10-28T07:55:35.548Z,55.35
2022-10-28T07:56:37.103Z,56.96
2022-10-28T07:57:38.660Z,55.78
2022-10-28T07:58:41.411Z,55.65
2022-10-28T07:59:42.907Z,54.07
2022-10-28T08:00:44.433Z,52.97
2022-10-28T08:01:46.225Z,52.90
2022-10-28T08:02:47.889Z,52.48
2022-10-28T08:03:49.451Z,52.40
2022-10-28T08:04:51.870Z,51.28
2022-10-28T08:06:03.706Z,52.70
2022-10-28T08:07:05.258Z,52.91
2022-10-28T08:08:06.818Z,52.66
2022-10-28T08:09:08.447Z,53.37
2022-10-28T08:10:10.224Z,53.96
2022-10-28T08:11:18.876Z,53.77
2022-10-28T08:12:20.379Z,53.33
2022-10-28T08:13:22.074Z,53.86
2022-10-28T08:14:23.679Z,52.49
2022-10-28T08:15:25.817Z,51.01
2022-10-28T08:16:29.079Z,51.31
2022-10-28T08:17:30.771Z,50.92
2022-10-28T08:18:32.440Z,51.51
2022-10-28T08:19:34.300Z,51.47
2022-10-28T08:20:35.826Z,51.43
2022-10-28T08:21:37.340Z,51.60
2022-10-28T08:22:38.850Z,51.00
2022-10-28T08:23:41.556Z,50.85
2022-10-28T08:24:43.082Z,52.15
2022-10-28T08:25:52.307Z,51.93
2022-10-28T08:26:53.837Z,51.35
2022-10-28T08:27:57.371Z,50.08
2022-10-28T08:29:01.464Z,49.75
2022-10-28T08:30:03.344Z,50.80
2022-10-28T08:31:09.391Z,51.36
2022-10-28T08:32:11.577Z,49.79
2022-10-28T08:33:14.376Z,49.45
2022-10-28T08:34:16.085Z,49.63
2022-10-28T08:35:17.670Z,49.01
2022-10-28T08:36:19.255Z,48.98
2022-10-28T08:37:20.895Z,48.66
2022-10-28T08:38:22.455Z,48.84
2022-10-28T08:39:24.087Z,48.51
2022-10-28T08:40:45.404Z,48.42
2022-10-28T08:41:58.455Z,48.01
2022-10-28T08:43:14.676Z,47.70
2022-10-28T08:44:38.369Z,48.36
2022-10-28T08:46:04.411Z,49.11
2022-10-28T08:47:27.308Z,50.28
2022-10-28T08:48:33.696Z,49.91
2022-10-28T08:49:39.344Z,49.60
2022-10-28T08:50:51.674Z,49.36
2022-10-28T08:52:21.945Z,49.18
2022-10-28T08:53:34.507Z,49.80
2022-10-28T08:54:43.127Z,49.94
2022-10-28T08:55:48.568Z,48.92
2022-10-28T08:56:52.048Z,48.90
2022-10-28T08:58:03.415Z,49.73
2022-10-28T08:59:07.528Z,49.71
2022-10-28T09:00:22.017Z,49.11
2022-10-28T09:01:51.431Z,49.58
2022-10-28T09:03:13.170Z,49.98
2022-10-28T09:04:34.929Z,47.81
2022-10-28T09:05:37.902Z,50.13
2022-10-28T09:06:39.428Z,48.77
2022-10-28T09:07:41.091Z,48.03
2022-10-28T09:08:45.500Z,48.60
2022-10-28T09:09:49.298Z,48.59
2022-10-28T09:11:11.042Z,49.10
2022-10-28T09:12:33.058Z,49.42
2022-10-28T09:13:54.444Z,47.78
2022-10-28T09:15:23.448Z,47.45
2022-10-28T09:16:47.636Z,47.65
2022-10-28T09:17:59.807Z,48.29
2022-10-28T09:19:14.780Z,48.72
2022-10-28T09:20:36.736Z,48.74
2022-10-28T09:21:48.640Z,49.30
2022-10-28T09:22:55.588Z,48.74
2022-10-28T09:24:00.899Z,48.20
2022-10-28T09:25:05.232Z,48.66
2022-10-28T09:26:09.784Z,49.36
2022-10-28T09:27:22.975Z,48.66
2022-10-28T09:28:36.543Z,47.96
2022-10-28T09:29:57.355Z,48.16
2022-10-28T09:31:30.987Z,49.85
2022-10-28T09:32:39.824Z,49.55
2022-10-28T09:34:09.992Z,48.25
2022-10-28T09:35:19.362Z,48.67
2022-10-28T09:36:32.126Z,48.68
2022-10-28T09:37:45.713Z,49.04
2022-10-28T09:38:47.832Z,48.96
2022-10-28T09:40:23.449Z,49.21
2022-10-28T09:41:31.203Z,50.23
2022-10-28T09:42:41.777Z,50.02
2022-10-28T09:44:00.070Z,49.52
2022-10-28T09:45:06.395Z,48.96
2022-10-28T09:46:33.338Z,48.62
2022-10-28T09:47:42.120Z,48.17
2022-10-28T09:48:47.997Z,48.79
2022-10-28T09:49:54.374Z,48.19
2022-10-28T09:50:57.564Z,47.32
2022-10-28T09:52:07.612Z,47.72
2022-10-28T09:53:46.169Z,48.15
2022-10-28T09:54:53.318Z,47.92
2022-10-28T09:55:56.931Z,47.53
2022-10-28T09:56:59.158Z,47.08
2022-10-28T09:58:03.507Z,47.33
2022-10-28T09:59:05.562Z,46.88
2022-10-28T10:00:07.831Z,46.95
2022-10-28T10:01:09.496Z,47.54
2022-10-28T10:02:27.942Z,47.77
2022-10-28T10:03:29.638Z,47.98
2022-10-28T10:04:31.424Z,47.70
2022-10-28T10:05:38.313Z,48.01
2022-10-28T10:06:42.834Z,47.43
2022-10-28T10:07:44.279Z,47.25
2022-10-28T10:08:46.930Z,47.13
2022-10-28T10:09:48.759Z,47.00
2022-10-28T10:10:56.028Z,47.38
2022-10-28T10:12:05.666Z,47.26
2022-10-28T10:13:09.240Z,47.35
2022-10-28T10:14:36.902Z,46.83
2022-10-28T10:15:44.749Z,46.90
2022-10-28T10:16:52.682Z,47.93
2022-10-28T10:17:59.115Z,47.15
2022-10-28T10:19:03.229Z,46.94
2022-10-28T10:20:19.523Z,46.91
2022-10-28T10:21:43.173Z,47.12
2022-10-28T10:22:46.879Z,47.11
2022-10-28T10:23:48.413Z,46.84
2022-10-28T10:24:50.949Z,47.68
2022-10-28T10:25:58.622Z,47.16
2022-10-28T10:27:03.988Z,47.02
2022-10-28T10:28:15.755Z,46.90
2022-10-28T10:29:17.479Z,46.50
2022-10-28T10:30:23.272Z,47.45
2022-10-28T10:31:27.305Z,47.14
2022-10-28T10:32:32.361Z,46.99
2022-10-28T10:33:38.081Z,45.94
2022-10-28T10:34:44.820Z,46.67
2022-10-28T10:35:57.845Z,46.30
2022-10-28T10:38:15.724Z,46.71
2022-10-28T10:39:23.331Z,46.94
2022-10-28T10:40:38.523Z,45.92
2022-10-28T10:41:41.172Z,45.90
2022-10-28T10:42:51.847Z,45.83
2022-10-28T10:44:22.815Z,45.11
2022-10-28T10:45:27.124Z,44.81
2022-10-28T10:46:28.798Z,45.36
2022-10-28T10:47:30.419Z,44.93
2022-10-28T10:48:36.086Z,46.05
2022-10-28T10:49:37.608Z,45.83
2022-10-28T10:50:39.836Z,45.95
2022-10-28T10:51:52.398Z,45.52
2022-10-28T10:52:59.541Z,45.48
2022-10-28T10:54:01.259Z,45.45
2022-10-28T10:55:07.974Z,45.20
2022-10-28T10:56:11.516Z,44.66
2022-10-28T10:57:22.185Z,45.53
2022-10-28T10:58:26.789Z,45.21
2022-10-28T10:59:31.156Z,45.03
2022-10-28T11:00:37.527Z,45.11
2022-10-28T11:01:40.142Z,45.86
2022-10-28T11:02:49.003Z,44.71
2022-10-28T11:04:04.880Z,45.48
2022-10-28T11:05:10.542Z,46.04
2022-10-28T11:06:24.406Z,45.87
2022-10-28T11:07:28.347Z,44.88
2022-10-28T11:08:39.355Z,44.76
2022-10-28T11:09:42.434Z,45.15
2022-10-28T11:10:44.087Z,44.79
2022-10-28T11:11:45.906Z,45.27
2022-10-28T11:13:03.692Z,45.33
2022-10-28T11:14:13.858Z,44.83
2022-10-28T11:15:33.492Z,44.84
2022-10-28T11:17:00.195Z,45.19
2022-10-28T11:18:20.719Z,45.18
2022-10-28T11:19:32.434Z,45.01
2022-10-28T11:20:59.125Z,45.64
2022-10-28T11:22:22.503Z,45.78
2022-10-28T11:23:45.473Z,45.24
2022-10-28T11:25:05.355Z,45.17
2022-10-28T11:26:11.998Z,44.21
2022-10-28T11:27:36.689Z,44.62
2022-10-28T11:28:57.680Z,44.78
2022-10-28T11:30:00.756Z,44.62
2022-10-28T11:31:27.255Z,44.38
2022-10-28T11:33:28.772Z,44.72
2022-10-28T11:35:08.475Z,44.26
2022-10-28T11:36:29.035Z,44.18
2022-10-28T11:38:02.954Z,44.13
2022-10-28T11:39:40.024Z,44.14
2022-10-28T11:40:59.747Z,43.73
2022-10-28T11:42:31.692Z,43.85
2022-10-28T11:43:50.911Z,43.80
2022-10-28T11:45:10.354Z,43.76
2022-10-28T11:47:00.868Z,42.97
2022-10-28T11:48:38.314Z,43.84
2022-10-28T11:49:39.894Z,43.32
2022-10-28T11:50:58.876Z,44.23
2022-10-28T11:52:06.779Z,43.34
2022-10-28T11:53:43.715Z,44.22
2022-10-28T11:55:01.648Z,44.65
2022-10-28T11:56:10.062Z,43.05
2022-10-28T11:57:17.249Z,42.88
2022-10-28T11:58:41.954Z,43.75
2022-10-28T12:00:02.071Z,43.13
2022-10-28T12:01:20.885Z,42.64
2022-10-28T12:02:31.699Z,42.80
2022-10-28T12:03:39.078Z,42.73
2022-10-28T12:05:01.728Z,42.49
2022-10-28T12:06:42.571Z,42.53
2022-10-28T12:08:04.945Z,42.04
2022-10-28T12:09:22.900Z,42.48
2022-10-28T12:10:39.432Z,43.37
2022-10-28T12:11:58.232Z,43.33
2022-10-28T12:12:59.827Z,42.49
2022-10-28T12:14:13.467Z,42.69
2022-10-28T12:15:28.819Z,42.53
2022-10-28T12:16:40.429Z,42.64
2022-10-28T12:18:06.605Z,42.51
2022-10-28T12:19:14.765Z,42.21
2022-10-28T12:20:25.833Z,42.15
2022-10-28T12:21:36.590Z,42.27
2022-10-28T12:22:57.219Z,42.33
2022-10-28T12:23:59.963Z,42.14
2022-10-28T12:25:08.195Z,42.33
2022-10-28T12:26:13.940Z,42.62
2022-10-28T12:27:30.778Z,41.78
2022-10-28T12:28:43.825Z,41.73
2022-10-28T12:29:51.317Z,41.85
2022-10-28T12:30:54.723Z,41.91
2022-10-28T12:32:02.980Z,41.40
2022-10-28T12:33:12.060Z,41.50
2022-10-28T12:34:20.181Z,41.14
2022-10-28T12:35:26.167Z,40.82
2022-10-28T12:36:43.464Z,40.85
2022-10-28T12:37:56.474Z,40.88
2022-10-28T12:39:30.691Z,40.66
2022-10-28T12:40:40.568Z,41.60
2022-10-28T12:42:04.784Z,40.26
2022-10-28T12:43:15.499Z,40.22
2022-10-28T12:44:21.143Z,40.25
2022-10-28T12:45:23.726Z,40.24
2022-10-28T12:46:44.749Z,40.67
2022-10-28T12:47:49.231Z,40.10
2022-10-28T12:49:06.284Z,40.54
2022-10-28T12:50:20.164Z,40.32
2022-10-28T12:51:30.587Z,40.46
2022-10-28T12:52:32.058Z,39.98
2022-10-28T12:54:18.640Z,39.93
2022-10-28T12:55:37.552Z,39.81
2022-10-28T12:56:44.692Z,40.23
2022-10-28T12:57:53.965Z,39.30
2022-10-28T12:59:07.057Z,39.52
2022-10-28T13:00:29.368Z,39.68
2022-10-28T13:01:33.341Z,40.04
2022-10-28T13:02:43.554Z,39.70
2022-10-28T13:03:45.109Z,39.74
2022-10-28T13:04:46.873Z,39.12
2022-10-28T13:05:59.040Z,39.29
2022-10-28T13:07:19.807Z,39.14
2022-10-28T13:08:46.673Z,39.36
2022-10-28T13:09:54.223Z,39.09
2022-10-28T13:11:20.640Z,39.27
2022-10-28T13:12:48.471Z,38.98
2022-10-28T13:14:03.659Z,40.00
2022-10-28T13:15:16.360Z,40.49
2022-10-28T13:16:35.894Z,39.51
2022-10-28T13:17:46.687Z,38.63
2022-10-28T13:19:18.804Z,37.91
2022-10-28T13:20:20.321Z,38.17
2022-10-28T13:21:29.949Z,38.92
2022-10-28T13:23:11.410Z,38.04
2022-10-28T13:24:58.393Z,37.81
2022-10-28T13:26:21.136Z,38.20
2022-10-28T13:27:23.512Z,38.39
2022-10-28T13:28:33.095Z,38.21
2022-10-28T13:29:35.034Z,38.37
2022-10-28T13:30:36.663Z,37.86
2022-10-28T13:31:41.552Z,37.74
2022-10-28T13:32:43.847Z,37.21
2022-10-28T13:34:00.171Z,37.29
2022-10-28T13:35:11.728Z,37.34
2022-10-28T13:36:20.482Z,36.49
2022-10-28T13:37:24.226Z,35.99
2022-10-28T13:38:29.200Z,36.25
2022-10-28T13:39:33.509Z,35.67
2022-10-28T13:40:38.219Z,35.69
2022-10-28T13:41:44.790Z,35.66
2022-10-28T13:42:50.708Z,36.47
2022-10-28T13:43:54.388Z,36.44
2022-10-28T13:44:58.276Z,36.37
2022-10-28T13:46:00.643Z,36.43
2022-10-28T13:47:24.316Z,36.78
2022-10-28T13:48:28.862Z,36.14
2022-10-28T13:49:35.212Z,36.17
2022-10-28T13:50:38.197Z,35.79
2022-10-28T13:51:47.163Z,36.46
2022-10-28T13:53:30.108Z,36.86
2022-10-28T13:54:51.607Z,36.86
2022-10-28T13:55:58.043Z,36.93
2022-10-28T13:57:07.777Z,37.16
2022-10-28T13:58:23.738Z,37.17
2022-10-28T13:59:30.458Z,37.55
2022-10-28T14:00:32.074Z,37.04
2022-10-28T14:01:43.829Z,36.93
2022-10-28T14:02:55.783Z,36.87
2022-10-28T14:03:58.221Z,36.70
2022-10-28T14:05:03.413Z,36.85
2022-10-28T14:06:05.353Z,37.22
2022-10-28T14:07:22.095Z,36.89
2022-10-28T14:08:42.514Z,37.26
2022-10-28T14:09:44.680Z,37.10
2022-10-28T14:11:06.411Z,37.23
2022-10-28T14:12:40.432Z,36.68
2022-10-28T14:13:50.866Z,37.27
2022-10-28T14:14:57.756Z,37.20
2022-10-28T14:16:26.244Z,36.87
2022-10-28T14:17:52.784Z,37.31
2022-10-28T14:19:19.487Z,37.28
2022-10-28T14:20:26.715Z,37.66
2022-10-28T14:23:22.559Z,37.42
2022-10-28T14:24:36.091Z,37.43
2022-10-28T14:25:40.605Z,37.58
2022-10-28T14:27:03.825Z,37.52
2022-10-28T14:28:27.936Z,37.54
2022-10-28T14:29:32.689Z,37.27
2022-10-28T14:30:34.246Z,37.56
2022-10-28T14:31:42.582Z,37.78
2022-10-28T14:32:45.264Z,37.97
2022-10-28T14:34:12.669Z,37.48